Tiempo atmosférico en la estación meteorológica de Sos del Rey Católico, Zaragoza (630 m.)



Fecha
DESCASC
Temp. máxima en grados centígrados (hora)
DESCASC
Temp. mínima en grados centígrados (hora)
DESCASC
Temp. media en grados centígrados
DESCASC
Racha de viento máxima en m/sg (hora)
DESCASC
Velocidad máxima media en intervalos de 10 minutos(hora)
DESCASC
Precipitaciones diarias en mm
DESCASC
Precipitaciones de 00:00 a 06:00 en mm
DESCASC
Precipitaciones de 06:00 a 12:00 en mm
DESCASC
Precipitaciones de 12:00 a 18:00 en mm
DESCASC
Precipitaciones de 18:00 a 24:00 en mm
DESCASC
28-02-2021 10.2 (14:40) 3.2 (00:40) 6.7 13.06 (22:10) 10 (22:10) 1.8 0.2 0 1.6 0
27-02-2021 14.1 (16:30) 4.6 (23:59) 9.4 8.33 (18:50) 5.56 (18:50) 0 0 0 0 0
26-02-2021 15.3 (17:20) 3 (07:40) 9.2 3.89 (14:40) 2.78 (14:50) 0 0 0 0 0
25-02-2021 14.7 (16:30) 5.4 (00:00) 10 12.78 (00:10) 8.89 (00:10) 0 0 0 0 0
24-02-2021 16.4 (15:20) 9.5 (00:00) 12.9 12.22 (23:59) 8.33 (23:30) 0 0 0 0 0
23-02-2021 13.9 (16:20) 5.4 (00:00) 9.6 10 (14:10) 7.22 (14:10) 0.2 0.2 0 0 0
22-02-2021 12.1 (00:40) 2.9 (00:00) 7.5 10 (00:10) 6.67 (00:10) 39.4 5.8 28.2 4.8 0.6
21-02-2021 14.6 (11:30) 11 (00:00) 12.8 16.94 (04:50) 11.94 (04:50) 0 0 0 0 0
20-02-2021 18.2 (15:00) 11.4 (00:00) 14.8 16.67 (23:10) 10.56 (21:00) 0 0 0 0 0
19-02-2021 16.9 (16:20) 8.3 (00:00) 12.6 9.72 (13:50) 7.22 (23:40) 0 0 0 0 0
18-02-2021 16.7 (16:10) 9.7 (00:00) 13.2 11.11 (10:20) 8.89 (10:10) 0 0 0 0 0
17-02-2021 15.7 (13:40) 4.6 (00:00) 10.1 -- (--) -- (--) 0 0 0 0 0
16-02-2021 15.4 (17:00) 5.8 (00:00) 10.6 8.06 (13:30) 6.11 (13:20) 0 0 0 0 0
15-02-2021 12.4 (15:30) 3.3 (00:00) 7.8 8.61 (14:40) 5.56 (14:40) 0 0 0 0 0
14-02-2021 13.1 (12:50) 0.7 (00:00) 6.9 9.72 (14:10) 6.39 (13:50) 0 0 0 0 0
13-02-2021 11.9 (14:00) 4.4 (00:00) 8.1 9.17 (18:40) 5.83 (18:40) 0 0 0 0 0
12-02-2021 11 (06:30) 7.8 (00:00) 9.4 10.56 (20:00) 7.78 (21:20) 9.8 0 4.8 4 1
11-02-2021 13.5 (17:10) 1.1 (00:00) 7.3 3.61 (00:50) 2.78 (19:00) 0 0 0 0 0
10-02-2021 8.8 (14:10) 2.1 (00:00) 5.5 6.39 (01:50) 5.28 (01:30) 6.4 0 6.4 0 0
09-02-2021 8.4 (11:10) 3.6 (00:00) 6 13.06 (14:50) 7.78 (14:30) 4.4 0 0.2 4 0.2
08-02-2021 10 (16:50) 3 (00:00) 6.5 7.22 (16:40) 3.89 (17:00) 0.4 0.2 0.2 0 0
07-02-2021 7.8 (15:20) 2.5 (00:00) 5.2 8.61 (02:40) 6.94 (03:00) 1.6 0 0 0 1.6
06-02-2021 11.9 (03:10) 4 (00:00) 7.9 9.72 (23:20) 6.11 (22:40) 11 0.2 7.2 3.2 0.4
05-02-2021 16.9 (14:50) 7.6 (00:00) 12.2 11.39 (15:00) 6.39 (13:30) 0 0 0 0 0
04-02-2021 16.8 (14:50) 9.8 (00:00) 13.3 10.83 (13:40) 7.78 (22:00) 0 0 0 0 0
03-02-2021 14.4 (12:20) 7.5 (00:00) 10.9 10 (05:20) 6.67 (05:40) 0.4 0 0 0.4 0
02-02-2021 17.2 (13:20) 5.8 (07:00) 11.5 5.83 (13:30) 4.17 (14:40) 0 0 0 0 0
01-02-2021 11.7 (11:50) 7.4 (00:00) 9.5 6.94 (07:30) 3.61 (07:00) 1.8 1.2 0.2 0.2 0.2

Gráficas

Temp. máximas Temp. mínimas Temp. medias Precipitaciones Rachas de viento máximas Velocidades máximas media en intervalos de 10 minutos

Datos horarios

Fecha y hora oficial Temperatura (ºC) Velocidad del viento (km/h) Dirección del viento Racha (km/h) Dirección de racha Precipitación (mm) Presión (hPa) Tendencia (hPa) Humedad (%)
2021-03-02 23:00:00 9.4 4 Sudeste 12 Sudeste 0 -- -- 78
2021-03-02 22:00:00 9.6 9 Sudeste 15 Sur 0 -- -- 77
2021-03-02 21:00:00 9.2 7 Sur 12 Sur 0 -- -- 77
2021-03-02 20:00:00 9 7 Sudeste 14 Este 0 -- -- 75
2021-03-02 19:00:00 10.3 8 Sudeste 22 Sudeste 0 -- -- 70
2021-03-02 18:00:00 11.1 12 Sudeste 21 Sudeste 0 -- -- 68
2021-03-02 17:00:00 11.3 11 Sudeste 21 Sudeste 0 -- -- 68
2021-03-02 16:00:00 12.2 9 Sudeste 22 Sur 0 -- -- 63
2021-03-02 15:00:00 12.3 14 Sudeste 25 Este 0 -- -- 60
2021-03-02 14:00:00 12.6 16 Sudeste 26 Sudeste 0 -- -- 61
2021-03-02 13:00:00 10.9 12 Sudeste 28 Sudeste 0 -- -- 68
2021-03-02 12:00:00 10.9 12 Sudeste 24 Sudeste 0 -- -- 69
2021-03-02 11:00:00 10 14 Sudeste 24 Este 0 -- -- 70
2021-03-02 10:00:00 9.8 8 Sudeste 19 Sudeste 0 -- -- 72
2021-03-02 09:00:00 9 8 Sudeste 19 Sudeste 0 -- -- 75
2021-03-02 08:00:00 8.5 10 Sudeste 28 Sudeste 0 -- -- 76
2021-03-02 07:00:00 8.2 15 Sudeste 25 Sudeste 0 -- -- 77
2021-03-02 06:00:00 8 13 Sudeste 26 Sudeste 0 -- -- 77
2021-03-02 05:00:00 8.1 7 Sudeste 23 Este 0 -- -- 79
2021-03-02 04:00:00 8.1 5 Sudeste 9 Sur 0 -- -- 81
2021-03-02 03:00:00 8.2 8 Sudeste 19 Sudeste 0 -- -- 81
2021-03-02 02:00:00 8.3 6 Sudeste 17 Sur 0 -- -- 79
2021-03-02 01:00:00 8.3 5 Sudeste 22 Sudeste 0 -- -- 78
2021-03-02 00:00:00 8 13 Sudeste 21 Sur 0 -- -- 76
2021-03-01 23:00:00 8 6 Este 17 Este 0 -- -- 77
2021-03-01 22:00:00 7.7 4 Sudeste 18 Este 0 -- -- 77
2021-03-01 21:00:00 8.6 8 Sudeste 15 Sudeste 0 -- -- 73
2021-03-01 20:00:00 8.9 8 Sudeste 18 Este 0 -- -- 71
2021-03-01 19:00:00 9.2 7 Sudeste 20 Sudeste 0 -- -- 72
2021-03-01 18:00:00 9.9 13 Sudeste 27 Sudeste 0 -- -- 67
2021-03-01 17:00:00 10.9 22 Sudeste 31 Sudeste 0 -- -- 62
2021-03-01 16:00:00 11.2 18 Sudeste 26 Sudeste 0 -- -- 62
2021-03-01 15:00:00 12.4 14 Sudeste 30 Este 0 -- -- 56
2021-03-01 14:00:00 11.7 16 Sudeste 37 Este 0 -- -- 58
2021-03-01 13:00:00 11.2 24 Sudeste 45 Este 0 -- -- 56
2021-03-01 12:00:00 10.9 17 Sudeste 35 Este 0 -- -- 60
2021-03-01 11:00:00 11.1 19 Sudeste 32 Este 0 -- -- 62
2021-03-01 10:00:00 8.8 17 Este 26 Sudeste 0 -- -- 66
2021-03-01 09:00:00 8.1 9 Sudeste 22 Este 0 -- -- 72
2021-03-01 08:00:00 7.1 13 Este 28 Este 0 -- -- 74
2021-03-01 07:00:00 7.1 11 Sudeste 23 Sudeste 0 -- -- 79
2021-03-01 06:00:00 7.4 16 Sudeste 30 Sudeste 0 -- -- 77
2021-03-01 05:00:00 7.6 16 Sudeste 24 Este 0 -- -- 80
2021-03-01 04:00:00 7.7 11 Sudeste 24 Sudeste 0 -- -- 81
2021-03-01 03:00:00 7.7 14 Sudeste 23 Sudeste 0 -- -- 82
2021-03-01 02:00:00 7.7 16 Sudeste 28 Este 0 -- -- 82
2021-03-01 01:00:00 7.4 14 Sudeste 31 Sudeste 0 -- -- 83
2021-03-01 00:00:00 7.3 16 Sudeste 37 Sudeste 0 -- -- 80
2021-02-28 23:00:00 8 19 Sudeste 47 Sudeste 0 -- -- 79
2021-02-28 22:00:00 8.2 30 Sudeste 44 Sudeste 0 -- -- 78
2021-02-28 21:00:00 8.7 26 Sudeste 39 Sudeste 0 -- -- 76
2021-02-28 20:00:00 8.9 24 Sudeste 45 Este 0 -- -- 79
2021-02-28 19:00:00 9.1 29 Sudeste 42 Sudeste 0 -- -- 77
2021-02-28 18:00:00 8.8 12 Sudeste 25 Sudeste 0 -- -- 77
2021-02-28 17:00:00 8.4 21 Sudeste 37 Sudeste 0.2 -- -- 81
2021-02-28 16:00:00 9.2 17 Sudeste 25 Sudeste 0.2 -- -- 80
2021-02-28 15:00:00 9.8 15 Sudeste 23 Sudeste 0 -- -- 79
2021-02-28 14:00:00 9.2 11 Sudeste 21 Sur 0.4 -- -- 84
2021-02-28 13:00:00 8 8 Sur 20 Sudeste 0.8 -- -- 91
2021-02-28 12:00:00 6.7 3 Nordeste 5 Sudeste 0 -- -- 84
2021-02-28 11:00:00 6.1 0 Calma 5 Noroeste 0 -- -- 82
2021-02-28 10:00:00 6 0 Calma 3 Noroeste 0 -- -- 89
2021-02-28 09:00:00 5.1 0 Calma 6 Norte 0 -- -- 93
2021-02-28 08:00:00 4.7 0 Calma 4 Norte 0 -- -- 92
2021-02-28 07:00:00 5.1 0 Calma 2 Norte 0 -- -- 92
2021-02-28 06:00:00 5.2 0 Calma 2 Sur 0 -- -- 94
2021-02-28 05:00:00 5.1 0 Calma -- -- 0.2 -- -- 93
2021-02-28 04:00:00 5 0 Calma 3 Oeste 0 -- -- 91
2021-02-28 03:00:00 5.1 2 Sur 12 Sur 0 -- -- 88
2021-02-28 02:00:00 4.4 0 Calma 6 Sur 0 -- -- 85
2021-02-28 01:00:00 3.6 4 Sudoeste 9 Sur 0 -- -- 82
2021-02-28 00:00:00 4.7 5 Sur 8 Sudoeste 0 -- -- 75
2021-02-27 23:00:00 6 2 Oeste 15 Oeste 0 -- -- 69
2021-02-27 22:00:00 6.9 5 Oeste 13 Noroeste 0 -- -- 68
2021-02-27 21:00:00 7.8 10 Noroeste 18 Oeste 0 -- -- 63
2021-02-27 20:00:00 8.8 9 Noroeste 22 Oeste 0 -- -- 58
2021-02-27 19:00:00 10.1 17 Noroeste 30 Noroeste 0 -- -- 53
2021-02-27 18:00:00 12.4 13 Noroeste 21 Noroeste 0 -- -- 45
2021-02-27 17:00:00 13.7 13 Noroeste 22 Noroeste 0 -- -- 42
2021-02-27 16:00:00 13.8 13 Norte 19 Norte 0 -- -- 44
2021-02-27 15:00:00 13.5 11 Noroeste -- -- -- -- -- 50
2021-02-27 14:00:00 13.1 14 Noroeste 22 Noroeste 0 -- -- 53
2021-02-27 13:00:00 12.3 14 Noroeste 24 Noroeste 0 -- -- 54
2021-02-27 12:00:00 11.4 13 Noroeste 28 Noroeste 0 -- -- 62
2021-02-27 11:00:00 9.9 12 Noroeste 19 Noroeste 0 -- -- 74
2021-02-27 10:00:00 8.1 11 Noroeste 18 Noroeste 0 -- -- 81
2021-02-27 09:00:00 6.7 10 Noroeste 18 Noroeste 0 -- -- 86
2021-02-27 08:00:00 5.4 5 Oeste 9 Oeste 0 -- -- 90
2021-02-27 07:00:00 5.3 5 Noroeste 9 Oeste 0 -- -- 91
2021-02-27 06:00:00 5.2 3 Noroeste 12 Noroeste 0 -- -- 91
2021-02-27 05:00:00 5.2 0 Calma 7 Oeste 0 -- -- 92
2021-02-27 04:00:00 5.9 5 Oeste 10 Oeste 0 -- -- 92
2021-02-27 03:00:00 6.4 5 Oeste 14 Sudoeste 0 -- -- 91
2021-02-27 02:00:00 6.9 6 Oeste 12 Noroeste 0 -- -- 91
2021-02-27 01:00:00 6.9 2 Oeste 7 Noroeste 0 -- -- 90
2021-02-27 00:00:00 7.2 2 Oeste 4 Oeste 0 -- -- 90
2021-02-26 23:00:00 7.4 0 Calma 6 Noroeste 0 -- -- 89
2021-02-26 22:00:00 7.3 0 Calma 8 Oeste 0 -- -- 89
2021-02-26 21:00:00 7.7 0 Calma 4 Sur 0 -- -- 88
2021-02-26 20:00:00 9.1 2 Sur 7 Sudoeste 0 -- -- 83
2021-02-26 19:00:00 11.4 3 Sur 8 Sudoeste 0 -- -- 75
2021-02-26 18:00:00 14.8 2 Sudoeste 7 Oeste 0 -- -- 57
2021-02-26 17:00:00 15 5 Noroeste 7 Noroeste 0 -- -- 59
2021-02-26 16:00:00 14.5 5 Noroeste 11 Norte 0 -- -- 63
2021-02-26 15:00:00 14.3 7 Noroeste 14 Noroeste 0 -- -- 64
2021-02-26 14:00:00 13.5 7 Noroeste 13 Norte 0 -- -- 67
2021-02-26 13:00:00 11.9 8 Norte 12 Norte 0 -- -- 73
2021-02-26 12:00:00 11.5 6 Norte 9 Norte 0 -- -- 76
2021-02-26 11:00:00 9.6 5 Norte 9 Nordeste 0 -- -- 85
2021-02-26 10:00:00 7.3 0 Calma -- -- 0 -- -- 100
2021-02-26 09:00:00 4.8 0 Calma 3 Sur 0 -- -- 100
2021-02-26 08:00:00 3.2 0 Calma 7 Sur 0 -- -- 97
2021-02-26 07:00:00 3.5 2 Sur 3 Sur 0 -- -- 96
2021-02-26 06:00:00 3.6 2 Sur 6 Sur 0 -- -- 96
2021-02-26 05:00:00 4.1 0 Calma 6 Sur 0 -- -- 96
2021-02-26 04:00:00 4.9 0 Calma 7 Sur 0 -- -- 95
2021-02-26 03:00:00 5.2 6 Sur 8 Sur 0 -- -- 95
2021-02-26 02:00:00 5.9 0 Calma 4 Sur 0 -- -- 95
2021-02-26 01:00:00 5.7 3 Sur 4 Sur 0 -- -- 94
2021-02-26 00:00:00 6 3 Sur 6 Sur 0 -- -- 93
2021-02-25 23:00:00 6 5 Sur 8 Sur 0 -- -- 92
2021-02-25 22:00:00 6.6 3 Sur 9 Sur 0 -- -- 91
2021-02-25 21:00:00 6.8 4 Sur 10 Sudoeste 0 -- -- 89
2021-02-25 20:00:00 8.3 5 Sur 8 Sur 0 -- -- 83
2021-02-25 19:00:00 10.1 3 Sur 7 Sur 0 -- -- 78
2021-02-25 18:00:00 12 5 Sudeste 15 Sur 0 -- -- 71
2021-02-25 17:00:00 14.4 6 Sudeste 17 Sur 0 -- -- 60
2021-02-25 16:00:00 14.1 8 Norte 16 Norte 0 -- -- 61
2021-02-25 15:00:00 14.1 10 Norte 13 Norte 0 -- -- 60
2021-02-25 14:00:00 13.7 5 Noroeste 10 Nordeste 0 -- -- 57
2021-02-25 13:00:00 12.8 8 Norte 22 Sur 0 -- -- 60
2021-02-25 12:00:00 12.2 15 Sudeste 26 Sudeste 0 -- -- 60
2021-02-25 11:00:00 10.7 9 Sudeste 18 Sudeste 0 -- -- 70
2021-02-25 10:00:00 9.5 4 Norte 19 Sudeste 0 -- -- 76
2021-02-25 09:00:00 8.1 2 Sudoeste 15 Sudeste 0 -- -- 79
2021-02-25 08:00:00 6.8 14 Sudeste 23 Sudeste 0 -- -- 83
2021-02-25 07:00:00 6.1 5 Sur 15 Sudeste 0 -- -- 85
2021-02-25 06:00:00 6.3 9 Sudeste 14 Sudeste 0 -- -- 88
2021-02-25 05:00:00 6.4 4 Sudoeste 8 Sudoeste 0 -- -- 83
2021-02-25 04:00:00 7.9 8 Oeste 14 Oeste 0 -- -- 81
2021-02-25 03:00:00 9.8 12 Sudeste 41 Sudeste 0 -- -- 71
2021-02-25 02:00:00 10.4 32 Sudeste 39 Sur 0 -- -- 67
2021-02-25 01:00:00 11.1 25 Sudeste 46 Sur 0 -- -- 64
2021-02-25 00:00:00 11.9 24 Sur 44 Sudeste 0 -- -- 62
2021-02-24 23:00:00 11.5 17 Sudeste 28 Sudeste 0 -- -- 65
2021-02-24 22:00:00 11.6 14 Sudeste 27 Sudeste 0 -- -- 66
2021-02-24 21:00:00 12 15 Sudeste 29 Sur 0 -- -- 62
2021-02-24 20:00:00 12.4 15 Sur 25 Este 0 -- -- 62
2021-02-24 19:00:00 13 15 Sudeste 27 Sudeste 0 -- -- 60
2021-02-24 18:00:00 14.6 14 Sudeste 33 Sudeste 0 -- -- 58
2021-02-24 17:00:00 15.7 19 Sudeste 35 Sur 0 -- -- 53
2021-02-24 16:00:00 16.1 20 Sudeste 33 Sudeste 0 -- -- 55
2021-02-24 15:00:00 15.7 23 Sudeste 39 Sudeste 0 -- -- 58
2021-02-24 14:00:00 15.2 24 Sudeste 39 Sudeste 0 -- -- 61
2021-02-24 13:00:00 13.9 26 Sudeste 38 Sudeste 0 -- -- 66
2021-02-24 12:00:00 13.7 19 Sur 32 Sudeste 0 -- -- 67
2021-02-24 11:00:00 12.7 24 Sudeste 38 Sudeste 0 -- -- 71
2021-02-24 10:00:00 11.7 19 Sudeste 30 Sudeste 0 -- -- 75
2021-02-24 09:00:00 10.1 17 Sudeste 30 Sudeste 0 -- -- 84
2021-02-24 08:00:00 9.5 20 Sudeste 35 Sudeste 0 -- -- 87
2021-02-24 07:00:00 10.1 19 Sudeste 39 Sudeste 0 -- -- 86
2021-02-24 06:00:00 10.3 23 Sudeste 39 Sudeste 0 -- -- 83
2021-02-24 05:00:00 10.5 22 Sudeste 35 Sudeste 0 -- -- 83
2021-02-24 04:00:00 10.5 18 Sudeste 31 Sudeste 0 -- -- 82
2021-02-24 03:00:00 11 20 Sudeste 31 Este 0 -- -- 82
2021-02-24 02:00:00 11 18 Sudeste 36 Sudeste 0 -- -- 84
2021-02-24 01:00:00 10.7 20 Sudeste 29 Sudeste 0 -- -- 83
2021-02-24 00:00:00 10 12 Sudeste 22 Sur 0 -- -- 81
2021-02-23 23:00:00 10.3 13 Sur 27 Sur 0 -- -- 78
2021-02-23 22:00:00 10.5 16 Sudeste 29 Sur 0 -- -- 76
2021-02-23 21:00:00 10.6 16 Sudeste 26 Sudeste 0 -- -- 77
2021-02-23 20:00:00 10.2 14 Sudeste 24 Sur 0 -- -- 79
2021-02-23 19:00:00 10.9 10 Sudeste 22 Sudeste 0 -- -- 77
2021-02-23 18:00:00 11.9 13 Sudeste 32 Sudeste 0 -- -- 68
2021-02-23 17:00:00 12.6 21 Sudeste 36 Sudeste 0 -- -- 63
2021-02-23 16:00:00 13.8 13 Sudeste 31 Este 0 -- -- 63
2021-02-23 15:00:00 13.5 18 Sudeste 36 Sudeste 0 -- -- 68
2021-02-23 14:00:00 12.2 19 Sudeste 29 Sudeste 0 -- -- 68
2021-02-23 13:00:00 12.3 18 Sudeste 29 Sudeste 0 -- -- 69
2021-02-23 12:00:00 11.1 16 Sudeste 24 Sudeste 0 -- -- 76
2021-02-23 11:00:00 8.7 12 Sudeste 22 Este 0 -- -- 88
2021-02-23 10:00:00 7.1 6 Sudeste 14 Sudeste 0 -- -- 96
2021-02-23 09:00:00 6.9 6 Sur 17 Sur 0 -- -- 95
2021-02-23 08:00:00 6.3 9 Sudeste 15 Sudeste 0 -- -- 94
2021-02-23 07:00:00 6.4 7 Sudeste 13 Sur 0 -- -- 94
2021-02-23 06:00:00 6.1 6 Sudeste 9 Sudeste 0 -- -- 96
2021-02-23 05:00:00 6.2 5 Sur 10 Sudoeste 0 -- -- 96
2021-02-23 04:00:00 6.1 6 Sur 12 Sur 0.2 -- -- 97
2021-02-23 03:00:00 5.6 4 Sudoeste 12 Sur 0 -- -- 96
2021-02-23 02:00:00 6 4 Sur 11 Sudeste 0 -- -- 94
2021-02-23 01:00:00 5.8 4 Sudoeste 7 Oeste 0 -- -- 97
2021-02-23 00:00:00 6.2 3 Sudoeste 6 Sur 0 -- -- 96
2021-02-22 23:00:00 6.2 0 Calma 4 Sudoeste 0.4 -- -- 96
2021-02-22 22:00:00 6.1 2 Noroeste 4 Noroeste 0 -- -- 95
2021-02-22 21:00:00 6.3 0 Calma 10 Oeste 0.2 -- -- 94
2021-02-22 20:00:00 6.4 5 Noroeste 12 Noroeste 0 -- -- 95
2021-02-22 19:00:00 6.3 4 Noroeste 12 Noroeste 0 -- -- 95
2021-02-22 18:00:00 5.9 5 Noroeste 15 Noroeste 0.8 -- -- 94
2021-02-22 17:00:00 6 8 Oeste 15 Oeste 0.6 -- -- 95
2021-02-22 16:00:00 5.8 8 Noroeste 13 Noroeste 0.4 -- -- 95
2021-02-22 15:00:00 5.6 8 Noroeste 15 Oeste 0.6 -- -- 96
2021-02-22 14:00:00 4.5 10 Noroeste 17 Oeste 0.6 -- -- 97
2021-02-22 13:00:00 4.1 14 Noroeste 22 Noroeste 1.8 -- -- 96
2021-02-22 12:00:00 3.7 12 Noroeste 24 Noroeste 2.8 -- -- 96
2021-02-22 11:00:00 3.2 11 Oeste 19 Noroeste 2 -- -- 97
2021-02-22 10:00:00 3.6 9 Noroeste 19 Noroeste 0 -- -- 93
2021-02-22 09:00:00 3.1 12 Noroeste 29 Noroeste 2.6 -- -- 96
2021-02-22 08:00:00 3.7 14 Noroeste 28 Noroeste 10.8 -- -- 97
2021-02-22 07:00:00 5.1 12 Noroeste 27 Norte 10 -- -- 96
2021-02-22 06:00:00 8.9 3 Este 14 Sudoeste 5.4 -- -- 91
2021-02-22 05:00:00 9.4 5 Oeste 15 Nordeste 0.4 -- -- 89
2021-02-22 04:00:00 9.5 4 Norte 21 Este 0 -- -- 84
2021-02-22 03:00:00 9.7 18 Este 22 Este 0 -- -- 81
2021-02-22 02:00:00 11.2 13 Este 23 Este 0 -- -- 70
2021-02-22 01:00:00 11.3 14 Nordeste 36 Sudeste 0 -- -- 67
2021-02-22 00:00:00 11.6 18 Sudeste 38 Sudeste 0 -- -- 62
2021-02-21 23:00:00 11.7 17 Sudeste 40 Este 0 -- -- 61
2021-02-21 22:00:00 11.9 22 Sudeste 44 Sudeste 0 -- -- 59
2021-02-21 21:00:00 11.6 25 Sudeste 36 Sudeste 0 -- -- 61
2021-02-21 20:00:00 11.8 26 Sudeste 46 Sudeste 0 -- -- 60
2021-02-21 19:00:00 11.9 21 Sudeste 38 Sudeste 0 -- -- 60
2021-02-21 18:00:00 12 23 Sudeste 36 Sur 0 -- -- 61
2021-02-21 17:00:00 12 19 Sudeste 30 Sudeste 0 -- -- 62
2021-02-21 16:00:00 12.1 22 Sudeste 38 Sudeste 0 -- -- 59
2021-02-21 15:00:00 12.2 28 Sudeste 46 Sudeste 0 -- -- 59
2021-02-21 14:00:00 12.6 33 Sudeste 52 Sudeste 0 -- -- 55
2021-02-21 13:00:00 13 33 Sudeste 58 Este 0 -- -- 42
2021-02-21 12:00:00 13.9 33 Sudeste 51 Sudeste 0 -- -- 35
2021-02-21 11:00:00 13.5 27 Sudeste 43 Sudeste 0 -- -- 33
2021-02-21 10:00:00 13.3 22 Sudeste 40 Sudeste 0 -- -- 34
2021-02-21 09:00:00 12.3 29 Sudeste 48 Sudeste 0 -- -- 35
2021-02-21 08:00:00 11.7 33 Sudeste 59 Sudeste 0 -- -- 37
2021-02-21 07:00:00 11.4 28 Sudeste 60 Sudeste 0 -- -- 38
2021-02-21 06:00:00 11 35 Sudeste 54 Este 0 -- -- 41
2021-02-21 05:00:00 11.2 35 Sudeste 61 Sudeste 0 -- -- 40
2021-02-21 04:00:00 11.4 32 Sudeste 51 Sudeste 0 -- -- 39
2021-02-21 03:00:00 11.6 35 Sudeste 53 Sudeste 0 -- -- 40
2021-02-21 02:00:00 11.5 36 Sudeste 59 Sudeste 0 -- -- 41
2021-02-21 01:00:00 12.1 33 Sudeste 49 Sudeste 0 -- -- 39
2021-02-21 00:00:00 12.3 35 Sudeste 60 Este 0 -- -- 40
2021-02-20 23:00:00 12.7 36 Sudeste 54 Sudeste 0 -- -- 42
2021-02-20 22:00:00 12.8 29 Sudeste 59 Sudeste 0 -- -- 44
2021-02-20 21:00:00 13.8 38 Sudeste 58 Sudeste 0 -- -- 41
2021-02-20 20:00:00 14.4 36 Sudeste 51 Sudeste 0 -- -- 38
2021-02-20 19:00:00 14.6 29 Sudeste 41 Sudeste 0 -- -- 41
2021-02-20 18:00:00 15.5 24 Sudeste 40 Sudeste 0 -- -- 38
2021-02-20 17:00:00 16.4 27 Sudeste 46 Sudeste 0 -- -- 34
2021-02-20 16:00:00 17.4 28 Sudeste 42 Este 0 -- -- 32
2021-02-20 15:00:00 17.8 25 Sudeste 35 Sur 0 -- -- 29
2021-02-20 14:00:00 17.5 28 Sudeste 59 Este 0 -- -- 33
2021-02-20 13:00:00 17.1 26 Sudeste 43 Sudeste 0 -- -- 31
2021-02-20 12:00:00 15 24 Sudeste 45 Sudeste 0 -- -- 38
2021-02-20 11:00:00 14.5 33 Sudeste 53 Sudeste 0 -- -- 39
2021-02-20 10:00:00 14 32 Sudeste 42 Sur 0 -- -- 40
2021-02-20 09:00:00 13.1 27 Sudeste 41 Sudeste 0 -- -- 42
2021-02-20 08:00:00 11.7 26 Sudeste 40 Sudeste 0 -- -- 45
2021-02-20 07:00:00 11.7 22 Sudeste 34 Sudeste 0 -- -- 45
2021-02-20 06:00:00 12 23 Sudeste 34 Sudeste 0 -- -- 45
2021-02-20 05:00:00 11.8 22 Sur 36 Sudeste 0 -- -- 45
2021-02-20 04:00:00 11.9 19 Sur 33 Sudeste 0 -- -- 46
2021-02-20 03:00:00 11.8 17 Sur 35 Sur 0 -- -- 46
2021-02-20 02:00:00 12.5 22 Sudeste 38 Sudeste 0 -- -- 46
2021-02-20 01:00:00 12.4 16 Sur 30 Sudeste 0 -- -- 44
2021-02-20 00:00:00 12.8 21 Sudeste 32 Sudeste 0 -- -- 42
2021-02-19 23:00:00 12.7 13 Sur 29 Sudeste 0 -- -- 45
2021-02-19 22:00:00 12.8 17 Sudeste 31 Sur 0 -- -- 43
2021-02-19 21:00:00 12.5 15 Sudeste 31 Sudeste 0 -- -- 46
2021-02-19 20:00:00 12.7 19 Sudeste 30 Sudeste 0 -- -- 50
2021-02-19 19:00:00 13.1 18 Sudeste 25 Sudeste 0 -- -- 54
2021-02-19 18:00:00 14.8 8 Sudeste 30 Sur 0 -- -- 45
2021-02-19 17:00:00 16.7 15 Sudeste 28 Sudeste 0 -- -- 39
2021-02-19 16:00:00 16.6 16 Sudeste 34 Sudeste 0 -- -- 40
2021-02-19 15:00:00 15.9 22 Sudeste 35 Sudeste 0 -- -- 40
2021-02-19 14:00:00 16.1 18 Sudeste 35 Sudeste 0 -- -- 42
2021-02-19 13:00:00 15.8 18 Sudeste 30 Sudeste 0 -- -- 44
2021-02-19 12:00:00 15 19 Sur 31 Sur 0 -- -- 46
2021-02-19 11:00:00 13.2 19 Sudeste 30 Sudeste 0 -- -- 47
2021-02-19 10:00:00 11.9 19 Sudeste 32 Sudeste 0 -- -- 52
2021-02-19 09:00:00 10.1 11 Sur 17 Sur 0 -- -- 57
2021-02-19 08:00:00 9.1 13 Sur 17 Sur 0 -- -- 63
2021-02-19 07:00:00 9 11 Sur 15 Sur 0 -- -- 69
2021-02-19 06:00:00 9 11 Sur 14 Sudoeste 0 -- -- 66
2021-02-19 05:00:00 8.6 11 Sur 14 Sur 0 -- -- 69
2021-02-19 04:00:00 8.8 10 Sur 17 Sur 0 -- -- 66
2021-02-19 03:00:00 9.7 10 Sur 15 Sur 0 -- -- 63
2021-02-19 02:00:00 10.2 13 Sur 18 Sur 0 -- -- 60
2021-02-19 01:00:00 10 12 Sur 15 Sur 0 -- -- 57
2021-02-19 00:00:00 9.7 10 Sur 14 Sur 0 -- -- 56
2021-02-18 23:00:00 10.7 9 Sur 14 Sur 0 -- -- 54
2021-02-18 22:00:00 10 8 Sur 12 Sur 0 -- -- 62
2021-02-18 21:00:00 11 9 Sur 13 Sur 0 -- -- 59
2021-02-18 20:00:00 11.1 12 Sur 15 Sur 0 -- -- 59
2021-02-18 19:00:00 11.3 10 Sur 13 Sur 0 -- -- 62
2021-02-18 18:00:00 14.9 7 Sudeste 18 Sudeste 0 -- -- 49
2021-02-18 17:00:00 16.2 11 Sur 19 Sur 0 -- -- 41
2021-02-18 16:00:00 16.6 14 Sur 24 Sudeste 0 -- -- 44
2021-02-18 15:00:00 15.7 15 Sudeste 32 Sudeste 0 -- -- 41
2021-02-18 14:00:00 15.3 16 Sur 29 Sudeste 0 -- -- 46
2021-02-18 13:00:00 14.3 16 Sudeste 32 Sudeste 0 -- -- 48
2021-02-18 12:00:00 13.2 18 Sudeste 36 Sudeste 0 -- -- 52
2021-02-18 11:00:00 13 25 Sudeste -- -- -- -- -- 51
2021-02-18 10:00:00 12.2 26 Sudeste 36 Sudeste 0 -- -- 55
2021-02-18 09:00:00 11.7 22 Sudeste 32 Sudeste 0 -- -- 57
2021-02-18 08:00:00 10.7 17 Sudeste 24 Sudeste 0 -- -- 61
2021-02-18 07:00:00 10.8 15 Sur 33 Sudeste 0 -- -- 62
2021-02-18 06:00:00 11.3 21 Sudeste 30 Sudeste 0 -- -- 59
2021-02-18 05:00:00 11.4 12 Sudeste 22 Sur 0 -- -- 58
2021-02-18 04:00:00 11.7 16 Sudeste 27 Sudeste 0 -- -- 58
2021-02-18 03:00:00 11.8 14 Sudeste 27 Sudeste 0 -- -- 62
2021-02-18 02:00:00 11.8 15 Sudeste 28 Sudeste 0 -- -- 61
2021-02-18 01:00:00 11.6 13 Sur 26 Sudeste 0 -- -- 63
2021-02-18 00:00:00 11.5 10 Sur 22 Sudeste 0 -- -- 66
2021-02-17 23:00:00 11.7 17 Sur 30 Sudeste 0 -- -- 68
2021-02-17 22:00:00 11.5 18 Sudeste 26 Sur 0 -- -- 69
2021-02-17 21:00:00 11.8 9 Sur 16 Sudeste 0 -- -- 66
2021-02-17 20:00:00 11.7 6 Sur 13 Sudeste 0 -- -- 66
2021-02-17 19:00:00 12.2 8 Sur 16 Sudeste 0 -- -- 66
2021-02-17 18:00:00 13.2 10 Sur 19 Sudeste 0 -- -- 64
2021-02-17 17:00:00 -- -- -- -- -- -- -- -- --
2021-02-17 16:00:00 14 13 Sudeste 21 Sur 0 -- -- 62
2021-02-17 15:00:00 14.7 10 Sur 24 Sudeste 0 -- -- 61
2021-02-17 14:00:00 15.5 11 Sudeste 21 Sudeste 0 -- -- 58
2021-02-17 13:00:00 14.9 12 Sur -- -- -- -- -- 57
2021-02-17 12:00:00 14.6 11 Sur 17 Sudoeste 0 -- -- 61
2021-02-17 11:00:00 12.5 12 Sudeste 18 Sudeste 0 -- -- 69
2021-02-17 10:00:00 7.7 3 Noroeste 8 Norte 0 -- -- 91
2021-02-17 09:00:00 6.4 2 Norte 6 Sur 0 -- -- 95
2021-02-17 08:00:00 4.9 4 Sur 7 Noroeste 0 -- -- 94
2021-02-17 07:00:00 5.4 2 Noroeste 6 Sudoeste 0 -- -- 95
2021-02-17 06:00:00 4.8 4 Sur 7 Sudoeste 0 -- -- 95
2021-02-17 05:00:00 5.9 0 Calma 9 Sur 0 -- -- 93
2021-02-17 04:00:00 6.4 3 Sur 9 Sudoeste 0 -- -- 91
2021-02-17 03:00:00 6.9 8 Sur 12 Sudoeste 0 -- -- 91
2021-02-17 02:00:00 7.3 2 Sur 10 Sur 0 -- -- 87
2021-02-17 01:00:00 8.2 6 Sur 10 Sur 0 -- -- 85
2021-02-17 00:00:00 8.6 8 Sur 9 Sur 0 -- -- 83
2021-02-16 23:00:00 9.4 0 Calma 8 Sur 0 -- -- 80
2021-02-16 22:00:00 9.1 3 Sur 9 Sur 0 -- -- 81
2021-02-16 21:00:00 9.1 4 Sur 12 Sur 0 -- -- 80
2021-02-16 20:00:00 10.1 5 Sur 8 Sur 0 -- -- 77
2021-02-16 19:00:00 11.4 3 Sur 6 Noroeste 0 -- -- 73
2021-02-16 18:00:00 12.5 4 Noroeste 11 Norte 0 -- -- 67
2021-02-16 17:00:00 15.3 2 Sudeste 14 Sur 0 -- -- 54
2021-02-16 16:00:00 14.1 5 Sur 12 Sur 0 -- -- 60
2021-02-16 15:00:00 13.9 6 Sur 28 Sudeste 0 -- -- 58
2021-02-16 14:00:00 14.2 10 Sur 29 Sudeste 0 -- -- 57
2021-02-16 13:00:00 14.3 19 Sudeste 28 Sudeste 0 -- -- 56
2021-02-16 12:00:00 12.9 16 Sudeste 22 Sudeste 0 -- -- 58
2021-02-16 11:00:00 11.1 13 Sudeste 18 Sudeste 0 -- -- 65
2021-02-16 10:00:00 9.5 10 Sudeste 18 Sudeste 0 -- -- 74
2021-02-16 09:00:00 6.5 6 Sudeste 18 Sur 0 -- -- 85
2021-02-16 08:00:00 5.9 6 Sudeste 19 Sudeste 0 -- -- 86
2021-02-16 07:00:00 6.3 9 Sudeste 19 Este 0 -- -- 86
2021-02-16 06:00:00 6.6 8 Sudeste 16 Sur 0 -- -- 85
2021-02-16 05:00:00 6.3 7 Sudeste 13 Este 0 -- -- 87
2021-02-16 04:00:00 6.3 10 Sudeste 16 Sudeste 0 -- -- 87
2021-02-16 03:00:00 6.5 9 Sudeste 17 Sudeste 0 -- -- 86
2021-02-16 02:00:00 6.2 10 Sudeste 19 Sur 0 -- -- 87
2021-02-16 01:00:00 6.1 7 Sudeste 13 Sur 0 -- -- 87
2021-02-16 00:00:00 6.4 6 Sudeste 16 Este 0 -- -- 86
2021-02-15 23:00:00 5.6 5 Sur 8 Sudeste 0 -- -- 86
2021-02-15 22:00:00 7 11 Sudeste 23 Sudeste 0 -- -- 82
2021-02-15 21:00:00 6.4 4 Sudeste 16 Sudeste 0 -- -- 86
2021-02-15 20:00:00 7.2 9 Sudeste 18 Sudeste 0 -- -- 82
2021-02-15 19:00:00 8.4 9 Sudeste 20 Sudeste 0 -- -- 77
2021-02-15 18:00:00 10.5 12 Sudeste 23 Este 0 -- -- 69
2021-02-15 17:00:00 11.8 16 Sudeste 22 Sudeste 0 -- -- 63
2021-02-15 16:00:00 11.9 13 Sudeste 26 Sudeste 0 -- -- 61
2021-02-15 15:00:00 11.8 15 Sudeste 31 Sudeste 0 -- -- 63
2021-02-15 14:00:00 11.8 17 Sudeste 27 Sudeste 0 -- -- 63
2021-02-15 13:00:00 12.1 13 Sudeste 27 Sudeste 0 -- -- 62
2021-02-15 12:00:00 11.3 12 Sudeste 18 Sudeste 0 -- -- 64
2021-02-15 11:00:00 7.8 4 Norte 7 Norte 0 -- -- 81
2021-02-15 10:00:00 6.6 2 Norte 8 Norte 0 -- -- 85
2021-02-15 09:00:00 4.3 0 Calma 4 Sur 0 -- -- 91
2021-02-15 08:00:00 3.9 3 Sur 5 Sudoeste 0 -- -- 90
2021-02-15 07:00:00 4.9 0 Calma 10 Sudeste 0 -- -- 87
2021-02-15 06:00:00 5.2 6 Sudeste 13 Sudeste 0 -- -- 87
2021-02-15 05:00:00 5 3 Este 12 Sudeste 0 -- -- 87
2021-02-15 04:00:00 5.1 11 Este 20 Este 0 -- -- 85
2021-02-15 03:00:00 5.1 0 Calma 11 Sur 0 -- -- 86
2021-02-15 02:00:00 5.5 4 Sudeste 13 Sur 0 -- -- 84
2021-02-15 01:00:00 6.4 10 Sur 18 Este 0 -- -- 81
2021-02-15 00:00:00 6.2 5 Sudeste 19 Sudeste 0 -- -- 83
2021-02-14 23:00:00 6.4 12 Sudeste 19 Sudeste 0 -- -- 84
2021-02-14 22:00:00 6.9 15 Sudeste 25 Sudeste 0 -- -- 82
2021-02-14 21:00:00 7.5 6 Sudeste 16 Este 0 -- -- 79
2021-02-14 20:00:00 7.7 11 Sudeste 18 Sur 0 -- -- 80
2021-02-14 19:00:00 8.1 11 Sudeste 23 Sudeste 0 -- -- 77
2021-02-14 18:00:00 9 13 Sudeste 29 Sudeste 0 -- -- 73
2021-02-14 17:00:00 10.3 17 Sudeste 31 Sudeste 0 -- -- 67
2021-02-14 16:00:00 10.2 16 Sudeste 33 Sudeste 0 -- -- 69
2021-02-14 15:00:00 11.4 21 Sudeste 35 Sudeste 0 -- -- 63
2021-02-14 14:00:00 12.1 23 Sudeste 32 Sudeste 0 -- -- 63
2021-02-14 13:00:00 12.5 21 Sudeste 29 Sudeste 0 -- -- 58
2021-02-14 12:00:00 11.7 17 Sudeste 30 Sur 0 -- -- 60
2021-02-14 11:00:00 6.7 7 Norte 9 Norte 0 -- -- 81
2021-02-14 10:00:00 5.2 2 Norte 3 Norte 0 -- -- 85
2021-02-14 09:00:00 2.1 2 Sudeste 5 Sur 0 -- -- 99
2021-02-14 08:00:00 0.9 0 Calma 6 Sur 0 -- -- 97
2021-02-14 07:00:00 1.1 2 Sur 3 Sur 0 -- -- 96
2021-02-14 06:00:00 1.6 3 Sur 5 Sur 0 -- -- 94
2021-02-14 05:00:00 2.4 4 Sur 7 Sur 0 -- -- 93
2021-02-14 04:00:00 2.9 4 Sur 13 Sur 0 -- -- 91
2021-02-14 03:00:00 3 8 Sur 10 Sur 0 -- -- 95
2021-02-14 02:00:00 3.5 0 Calma 3 Oeste 0 -- -- 89
2021-02-14 01:00:00 5.1 0 Calma 9 Oeste 0 -- -- 83
2021-02-14 00:00:00 6.1 7 Noroeste 12 Noroeste 0 -- -- 80
2021-02-13 23:00:00 5.2 5 Sudoeste 9 Noroeste 0 -- -- 87
2021-02-13 22:00:00 5.3 4 Sudoeste 8 Sudoeste 0 -- -- 86
2021-02-13 21:00:00 7.2 4 Sur 13 Oeste 0 -- -- 76
2021-02-13 20:00:00 8.8 8 Oeste 26 Noroeste 0 -- -- 69
2021-02-13 19:00:00 9.5 20 Noroeste 33 Noroeste 0 -- -- 66
2021-02-13 18:00:00 10.1 11 Noroeste 23 Noroeste 0 -- -- 64
2021-02-13 17:00:00 10.7 17 Noroeste 28 Noroeste 0 -- -- 66
2021-02-13 16:00:00 11 13 Noroeste 21 Noroeste 0 -- -- 64
2021-02-13 15:00:00 11.2 11 Noroeste 26 Noroeste 0 -- -- 62
2021-02-13 14:00:00 11.9 14 Noroeste 22 Norte 0 -- -- 52
2021-02-13 13:00:00 10.6 9 Noroeste 15 Noroeste 0 -- -- 73
2021-02-13 08:00:00 4.7 0 Calma 3 Oeste 0 -- -- 94
2021-02-13 07:00:00 6.3 0 Calma 19 Noroeste 0 -- -- 89
2021-02-13 06:00:00 6.3 7 Noroeste 10 Noroeste 0 -- -- 89
2021-02-13 05:00:00 6.8 5 Oeste 15 Noroeste 0 -- -- 85
2021-02-13 04:00:00 7.6 8 Noroeste 23 Noroeste 0 -- -- 87
2021-02-13 03:00:00 7.6 14 Noroeste 27 Noroeste 0 -- -- 87
2021-02-13 02:00:00 7.8 11 Noroeste 25 Oeste 0 -- -- 89
2021-02-13 01:00:00 8 13 Noroeste 23 Noroeste 0 -- -- 88
2021-02-13 00:00:00 8 9 Noroeste 24 Noroeste 0 -- -- 92
2021-02-12 23:00:00 8.4 18 Noroeste 33 Noroeste 0 -- -- 88
2021-02-12 22:00:00 8.2 19 Noroeste 34 Noroeste 0 -- -- 90
2021-02-12 21:00:00 8.3 26 Noroeste 34 Noroeste 0 -- -- 92
2021-02-12 20:00:00 8.5 23 Noroeste 38 Noroeste 0.4 -- -- 90
2021-02-12 19:00:00 8.6 18 Noroeste 31 Noroeste 0.6 -- -- 91
2021-02-12 18:00:00 9.4 24 Noroeste 33 Noroeste 0 -- -- 82
2021-02-12 17:00:00 9.5 23 Noroeste 36 Noroeste 0 -- -- 86
2021-02-12 16:00:00 10.4 24 Noroeste 33 Noroeste 0 -- -- 80
2021-02-12 15:00:00 10.2 24 Noroeste 35 Oeste 0.2 -- -- 84
2021-02-12 14:00:00 9.5 8 Noroeste 22 Noroeste 3.4 -- -- 93
2021-02-12 13:00:00 10.3 4 Oeste 14 Sudoeste 0.4 -- -- 90
2021-02-12 12:00:00 10.2 5 Sudoeste 16 Oeste 1 -- -- 90
2021-02-12 11:00:00 10.1 8 Sudoeste 15 Sur 0.2 -- -- 89
2021-02-12 10:00:00 9.4 10 Sur 20 Sudoeste 1 -- -- 92
2021-02-12 09:00:00 9.6 13 Sur 21 Sudoeste 0.8 -- -- 92
2021-02-12 08:00:00 9.7 8 Sur 14 Sudoeste 1.2 -- -- 92
2021-02-12 07:00:00 10.7 7 Sur 20 Sur 0.6 -- -- 86
2021-02-12 06:00:00 10.4 9 Sur 14 Sur 0 -- -- 82
2021-02-12 05:00:00 10.7 9 Sur 16 Sudeste 0 -- -- 81
2021-02-12 04:00:00 10 9 Sur 12 Sur 0 -- -- 84
2021-02-12 03:00:00 9.8 7 Sur 15 Sur 0 -- -- 85
2021-02-12 02:00:00 9.8 2 Sudeste 15 Sur 0 -- -- 84
2021-02-12 01:00:00 9.7 10 Sur 15 Sur 0 -- -- 85
2021-02-12 00:00:00 8.6 3 Sur 5 Sur 0 -- -- 90
2021-02-11 23:00:00 8.4 5 Sur 11 Sur 0 -- -- 91
2021-02-11 22:00:00 7.9 5 Sur 9 Sur 0 -- -- 91
2021-02-11 21:00:00 8.5 4 Sur 12 Sur 0 -- -- 89
2021-02-11 20:00:00 8.5 6 Sur 11 Sur 0 -- -- 88
2021-02-11 19:00:00 10.4 10 Sur 12 Sudoeste 0 -- -- 82
2021-02-11 18:00:00 12.8 2 Sur 3 Sur 0 -- -- 76
2021-02-11 17:00:00 13.1 2 Nordeste 8 Nordeste 0 -- -- 68
2021-02-11 16:00:00 13 7 Norte 11 Norte 0 -- -- 69
2021-02-11 15:00:00 12.9 3 Norte 9 Norte 0 -- -- 70
2021-02-11 14:00:00 11.8 6 Norte 10 Norte 0 -- -- 71
2021-02-11 13:00:00 9.4 2 Norte 10 Norte 0 -- -- 81
2021-02-11 12:00:00 8.5 6 Norte 9 Norte 0 -- -- 84
2021-02-11 11:00:00 6 0 Calma 7 Norte 0 -- -- 94
2021-02-11 10:00:00 3.8 4 Norte 7 Noroeste 0 -- -- 95
2021-02-11 09:00:00 2.7 2 Sudoeste 4 Norte 0 -- -- 99
2021-02-11 08:00:00 1.3 2 Sur 5 Sur 0 -- -- 98
2021-02-11 07:00:00 1.1 3 Sur 10 Sur 0 -- -- 97
2021-02-11 06:00:00 1.8 2 Nordeste 6 Noroeste 0 -- -- 96
2021-02-11 05:00:00 3 0 Calma 4 Sudeste 0 -- -- 96
2021-02-11 04:00:00 2.9 2 Sur 5 Sur 0 -- -- 97
2021-02-11 03:00:00 2.8 0 Calma 10 Sur 0 -- -- 94
2021-02-11 02:00:00 2.1 4 Sur 9 Sur 0 -- -- 96
2021-02-11 01:00:00 2.3 6 Sudoeste 13 Sur 0 -- -- 96
2021-02-11 00:00:00 2.1 5 Sur 13 Sudoeste 0 -- -- 94
2021-02-10 23:00:00 2.8 2 Sur 7 Sur 0 -- -- 94
2021-02-10 22:00:00 3.4 4 Sur 6 Oeste 0 -- -- 91
2021-02-10 21:00:00 3.8 3 Oeste 9 Sur 0 -- -- 92
2021-02-10 20:00:00 4.9 3 Sur 11 Sur 0 -- -- 92
2021-02-10 19:00:00 6.1 4 Sur 7 Sur 0 -- -- 89
2021-02-10 18:00:00 7.4 2 Sur 6 Sudoeste 0 -- -- 88
2021-02-10 17:00:00 7.4 4 Oeste 12 Noroeste 0 -- -- 83
2021-02-10 16:00:00 8 9 Norte 13 Noroeste 0 -- -- 82
2021-02-10 15:00:00 7.8 4 Noroeste 14 Norte 0 -- -- 81
2021-02-10 14:00:00 8.7 7 Noroeste 12 Noroeste 0 -- -- 73
2021-02-10 13:00:00 -- -- -- -- -- -- -- -- --
2021-02-10 12:00:00 6.3 9 Noroeste 11 Oeste 0 -- -- 85
2021-02-10 11:00:00 4.4 4 Noroeste 14 Oeste 0 -- -- 95
2021-02-10 10:00:00 3.5 6 Noroeste 16 Noroeste 0.2 -- -- 94
2021-02-10 09:00:00 3.2 10 Noroeste 17 Noroeste 1.4 -- -- 95
2021-02-10 08:00:00 4 4 Noroeste 9 Sudoeste 2.6 -- -- 96
2021-02-10 07:00:00 4.3 5 Sur 13 Sudeste 2.2 -- -- 92
2021-02-10 06:00:00 4.6 8 Sur 12 Sur 0 -- -- 86
2021-02-10 05:00:00 4.6 8 Sur 22 Sur 0 -- -- 85
2021-02-10 04:00:00 4.7 10 Sur 20 Sur 0 -- -- 83
2021-02-10 03:00:00 5.2 14 Sur 22 Sur 0 -- -- 84
2021-02-10 02:00:00 5 14 Sur 23 Sur 0 -- -- 83
2021-02-10 01:00:00 5.3 14 Sur 22 Sur 0 -- -- 83
2021-02-10 00:00:00 5.5 12 Sur 21 Sur 0 -- -- 83
2021-02-09 23:00:00 5.9 8 Sur 14 Sur 0 -- -- 86
2021-02-09 22:00:00 5.9 8 Sur 18 Sur 0.2 -- -- 90
2021-02-09 21:00:00 6 12 Sur 19 Sudoeste 0 -- -- 91
2021-02-09 20:00:00 5.9 12 Sur 18 Sur 0 -- -- 91
2021-02-09 19:00:00 6.4 4 Sudeste 14 Sur 0 -- -- 91
2021-02-09 18:00:00 7 10 Sur 22 Sudoeste 0 -- -- 90
2021-02-09 17:00:00 7.1 15 Sur 22 Sur 0.8 -- -- 91
2021-02-09 16:00:00 6.8 14 Sur 28 Sudeste 0.6 -- -- 91
2021-02-09 15:00:00 6.5 20 Sur 47 Sudeste 2 -- -- 89
2021-02-09 14:00:00 6.7 26 Sudeste 39 Sudeste 0.6 -- -- 86
2021-02-09 13:00:00 8.1 23 Sudeste 35 Sudeste 0 -- -- 74
2021-02-09 12:00:00 7.7 18 Sudeste 27 Sudeste 0 -- -- 75
2021-02-09 11:00:00 8.1 15 Sudeste 24 Sudeste 0 -- -- 74
2021-02-09 10:00:00 7 12 Sur 27 Sur 0 -- -- 78
2021-02-09 09:00:00 6.3 14 Sur 22 Sur 0 -- -- 80
2021-02-09 08:00:00 5.9 17 Sur 25 Sur 0 -- -- 82
2021-02-09 07:00:00 5.3 7 Sur 11 Sur 0.2 -- -- 91
2021-02-09 06:00:00 4.4 6 Sur 11 Sur 0 -- -- 92
2021-02-09 05:00:00 4.2 5 Sur 10 Sudoeste 0 -- -- 92
2021-02-09 04:00:00 3.6 8 Sur 12 Sur 0 -- -- 92
2021-02-09 03:00:00 4.7 5 Sur 9 Noroeste 0 -- -- 88
2021-02-09 02:00:00 5.5 6 Sudoeste 11 Sudoeste 0 -- -- 85
2021-02-09 01:00:00 5.2 2 Sudoeste 5 Sur 0 -- -- 91
2021-02-09 00:00:00 5.2 6 Sur 9 Sur 0 -- -- 93
2021-02-08 23:00:00 5.2 4 Sur 6 Sur 0 -- -- 91
2021-02-08 22:00:00 5.1 7 Sudoeste 10 Sur 0 -- -- 90
2021-02-08 21:00:00 5.7 0 Calma 6 Sudoeste 0 -- -- 88
2021-02-08 20:00:00 6.3 4 Sur 14 Noroeste 0 -- -- 87
2021-02-08 19:00:00 8 5 Sudoeste 17 Sudoeste 0 -- -- 71
2021-02-08 18:00:00 8.4 8 Sudoeste 23 Sudoeste 0 -- -- 67
2021-02-08 17:00:00 9.3 14 Sudoeste 26 Noroeste 0 -- -- 64
2021-02-08 16:00:00 9.3 3 Norte 12 Noroeste 0 -- -- 76
2021-02-08 15:00:00 8.2 5 Norte 11 Norte 0 -- -- 81
2021-02-08 14:00:00 9.2 8 Oeste 21 Sudoeste 0 -- -- 77
2021-02-08 13:00:00 8 3 Norte 6 Norte 0 -- -- 89
2021-02-08 12:00:00 6.6 0 Calma 5 Norte 0 -- -- 94
2021-02-08 11:00:00 5.5 3 Norte 7 Noroeste 0 -- -- 95
2021-02-08 10:00:00 4.8 3 Sudeste 9 Noroeste 0.2 -- -- 97
2021-02-08 09:00:00 4.4 2 Norte 11 Norte 0 -- -- 96
2021-02-08 08:00:00 5 5 Este 16 Sur 0 -- -- 91
2021-02-08 07:00:00 4.5 3 Noroeste 5 Norte 0 -- -- 95
2021-02-08 06:00:00 4.1 0 Calma 5 Norte 0 -- -- 95
2021-02-08 05:00:00 4.3 2 Este 7 Sudeste 0.2 -- -- 94
2021-02-08 04:00:00 4 7 Sur 10 Sur 0 -- -- 96
2021-02-08 03:00:00 3.7 5 Sur 6 Sur 0 -- -- 97
2021-02-08 02:00:00 3.4 2 Oeste 5 Sur 0 -- -- 97
2021-02-08 01:00:00 3.6 5 Sur 7 Sudoeste 0 -- -- 95
2021-02-08 00:00:00 3.9 2 Sur 4 Sur 0.6 -- -- 95
2021-02-07 23:00:00 4 3 Sur 7 Sudoeste 0.4 -- -- 95
2021-02-07 22:00:00 4.3 5 Sur 8 Sudoeste 0.2 -- -- 93
2021-02-07 21:00:00 4.8 3 Sudoeste 12 Oeste 0.4 -- -- 85
2021-02-07 20:00:00 5.4 5 Sudoeste 11 Oeste 0 -- -- 75
2021-02-07 19:00:00 5.3 6 Sur 8 Sudoeste 0 -- -- 82
2021-02-07 18:00:00 6.2 2 Nordeste 9 Norte 0 -- -- 74
2021-02-07 17:00:00 6.8 7 Norte 15 Norte 0 -- -- 70
2021-02-07 16:00:00 7.2 8 Noroeste 21 Noroeste 0 -- -- 68
2021-02-07 15:00:00 6.8 15 Noroeste 26 Noroeste 0 -- -- 70
2021-02-07 14:00:00 6.4 11 Noroeste 18 Oeste 0 -- -- 74
2021-02-07 13:00:00 5.8 14 Noroeste 24 Noroeste 0 -- -- 77
2021-02-07 12:00:00 5 10 Noroeste 25 Noroeste 0 -- -- 82
2021-02-07 11:00:00 4.6 12 Noroeste 24 Oeste 0 -- -- 82
2021-02-07 10:00:00 3.6 15 Noroeste 22 Noroeste 0 -- -- 85
2021-02-07 09:00:00 3.3 16 Noroeste 22 Noroeste 0 -- -- 87
2021-02-07 08:00:00 2.9 14 Noroeste 21 Noroeste 0 -- -- 89
2021-02-07 07:00:00 2.9 15 Noroeste 30 Noroeste 0 -- -- 87
2021-02-07 06:00:00 2.8 11 Noroeste 28 Noroeste 0 -- -- 88
2021-02-07 05:00:00 3 17 Noroeste 26 Noroeste 0 -- -- 86
2021-02-07 04:00:00 2.8 17 Noroeste 25 Noroeste 0 -- -- 87
2021-02-07 03:00:00 3 25 Noroeste 31 Noroeste 0 -- -- 84
2021-02-07 02:00:00 3.4 17 Noroeste 28 Noroeste 0 -- -- 82
2021-02-07 01:00:00 4 19 Noroeste 29 Noroeste 0 -- -- 83
2021-02-07 00:00:00 4.2 17 Noroeste 35 Noroeste 0 -- -- 85
2021-02-06 23:00:00 4.6 20 Noroeste 29 Noroeste 0 -- -- 84
2021-02-06 22:00:00 4.9 17 Noroeste 24 Noroeste 0 -- -- 84
2021-02-06 21:00:00 5 16 Noroeste 25 Noroeste 0 -- -- 87
2021-02-06 20:00:00 5.1 19 Noroeste 33 Noroeste 0.2 -- -- 91
2021-02-06 19:00:00 6.1 14 Noroeste 22 Oeste 0.2 -- -- 92
2021-02-06 18:00:00 6.7 13 Noroeste 24 Noroeste 1.2 -- -- 91
2021-02-06 17:00:00 7.2 15 Noroeste 23 Noroeste 1.4 -- -- 90
2021-02-06 16:00:00 8 4 Oeste 13 Sudoeste 0.2 -- -- 87
2021-02-06 15:00:00 8.6 5 Oeste 18 Sudoeste 0.2 -- -- 86
2021-02-06 14:00:00 9.1 7 Sudoeste 15 Oeste 0 -- -- 86
2021-02-06 13:00:00 8.8 6 Sudoeste 12 Sur 0.2 -- -- 91
2021-02-06 12:00:00 8.4 5 Sur 8 Sudoeste 0.8 -- -- 93
2021-02-06 11:00:00 8 0 Calma 13 Sur 2 -- -- 93
2021-02-06 10:00:00 8.1 6 Sur 9 Sur 2 -- -- 94
2021-02-06 09:00:00 7.7 0 Calma 4 Nordeste 0.6 -- -- 94
2021-02-06 08:00:00 7.9 2 Sudoeste 11 Sur 1.2 -- -- 91
2021-02-06 07:00:00 8.3 8 Sur 20 Sur 0.6 -- -- 91
2021-02-06 06:00:00 10 14 Sur 25 Sudoeste 0 -- -- 76
2021-02-06 05:00:00 9.8 8 Sur 13 Sudeste 0.2 -- -- 71
2021-02-06 04:00:00 9.5 7 Sudeste 16 Sudeste 0 -- -- 75
2021-02-06 03:00:00 11.8 14 Sudeste 24 Sur 0 -- -- 55
2021-02-06 02:00:00 11.3 11 Sudeste 17 Sudeste 0 -- -- 66
2021-02-06 01:00:00 10.4 11 Sur 14 Sudeste 0 -- -- 58
2021-02-06 00:00:00 10.7 9 Sur 15 Sur 0 -- -- 59
2021-02-05 23:00:00 9.5 8 Sur 12 Sur 0 -- -- 68
2021-02-05 22:00:00 10.8 4 Sur 14 Sudeste 0 -- -- 65
2021-02-05 21:00:00 10.9 12 Sur 16 Sur 0 -- -- 69
2021-02-05 20:00:00 11.1 3 Sur 14 Sudeste 0 -- -- 70
2021-02-05 19:00:00 12 7 Sudeste 22 Sudeste 0 -- -- 67
2021-02-05 18:00:00 14.1 14 Sur 25 Sur 0 -- -- 57
2021-02-05 17:00:00 15.5 22 Sudeste 33 Sur 0 -- -- 50
2021-02-05 16:00:00 16.6 13 Sudeste 41 Este 0 -- -- 47
2021-02-05 15:00:00 16.6 21 Sudeste 41 Sudeste 0 -- -- 47
2021-02-05 14:00:00 15.9 13 Sudeste 33 Sudeste 0 -- -- 50
2021-02-05 13:00:00 15.8 11 Sudeste 23 Este 0 -- -- 49
2021-02-05 12:00:00 13.2 5 Noroeste 8 Nordeste 0 -- -- 65
2021-02-05 11:00:00 11.9 4 Norte 5 Noroeste 0 -- -- 72
2021-02-05 10:00:00 8.6 0 Calma 3 Sur 0 -- -- 86
2021-02-05 09:00:00 7.7 0 Calma 6 Sur 0 -- -- 83
2021-02-05 08:00:00 8 4 Sur 7 Sudoeste 0 -- -- 81
2021-02-05 07:00:00 9.1 2 Sur 5 Sur 0 -- -- 75
2021-02-05 06:00:00 10.4 2 Norte 9 Sur 0 -- -- 72
2021-02-05 05:00:00 10.4 4 Sur 17 Sur 0 -- -- 70
2021-02-05 04:00:00 12.8 10 Sur 23 Sur 0 -- -- 57
2021-02-05 03:00:00 11.8 12 Sur 19 Sur 0 -- -- 64
2021-02-05 02:00:00 11.8 4 Noroeste 13 Sudeste 0 -- -- 65
2021-02-05 01:00:00 12.4 13 Sudeste 20 Sudeste 0 -- -- 64
2021-02-05 00:00:00 11.7 15 Sudeste 27 Sudeste 0 -- -- 69
2021-02-04 23:00:00 11.8 15 Sudeste 31 Sudeste 0 -- -- 68
2021-02-04 22:00:00 12.6 28 Sudeste 37 Sudeste 0 -- -- 67
2021-02-04 21:00:00 12.8 19 Sudeste 25 Sudeste 0 -- -- 69
2021-02-04 20:00:00 13 15 Sudeste 27 Sudeste 0 -- -- 66
2021-02-04 19:00:00 13.4 17 Sudeste 23 Sudeste 0 -- -- 62
2021-02-04 18:00:00 14 13 Sudeste 28 Sudeste 0 -- -- 58
2021-02-04 17:00:00 15.4 12 Sudeste 32 Sudeste 0 -- -- 55
2021-02-04 16:00:00 16 19 Este 31 Sudeste 0 -- -- 53
2021-02-04 15:00:00 16.1 19 Sudeste 31 Este 0 -- -- 52
2021-02-04 14:00:00 15 14 Sudeste 39 Este 0 -- -- 57
2021-02-04 13:00:00 15.8 22 Sudeste 32 Este 0 -- -- 55
2021-02-04 12:00:00 15.2 13 Sudeste 19 Sudeste 0 -- -- 58
2021-02-04 11:00:00 13.9 13 Sur 23 Sur 0 -- -- 62
2021-02-04 10:00:00 12.5 13 Sudeste 18 Sudeste 0 -- -- 68
2021-02-04 09:00:00 11.7 14 Sudeste 22 Sudeste 0 -- -- 70
2021-02-04 08:00:00 11.3 19 Sudeste 31 Sudeste 0 -- -- 71
2021-02-04 07:00:00 11.2 10 Sudeste 22 Sudeste 0 -- -- 71
2021-02-04 06:00:00 11.7 12 Sudeste 22 Sudeste 0 -- -- 70
2021-02-04 05:00:00 11.7 16 Sudeste 25 Sudeste 0 -- -- 70
2021-02-04 04:00:00 11.7 17 Sudeste 25 Sudeste 0 -- -- 70
2021-02-04 03:00:00 11.7 8 Sudeste 19 Sudeste 0 -- -- 72
2021-02-04 02:00:00 11.5 12 Sudeste 21 Sudeste 0 -- -- 73
2021-02-04 01:00:00 10.5 8 Sudeste 15 Sudeste 0 -- -- 79
2021-02-04 00:00:00 10 6 Sudeste 10 Sur 0 -- -- 80
2021-02-03 23:00:00 9.6 8 Sur 14 Sur 0 -- -- 81
2021-02-03 22:00:00 10.5 10 Sudeste 14 Sudeste 0 -- -- 81
2021-02-03 21:00:00 10.4 8 Sur 11 Sur 0 -- -- 84
2021-02-03 20:00:00 10 6 Sur 11 Sur 0 -- -- 86
2021-02-03 19:00:00 10.5 8 Sur 11 Sur 0 -- -- 86
2021-02-03 18:00:00 11.1 0 Calma 3 Sudoeste 0 -- -- 89
2021-02-03 17:00:00 11.3 4 Norte 11 Noroeste 0 -- -- 88
2021-02-03 16:00:00 12.1 3 Noroeste 14 Sudeste 0.2 -- -- 80
2021-02-03 15:00:00 12.5 8 Sudeste 28 Sudeste 0.2 -- -- 76
2021-02-03 14:00:00 13.9 13 Sur 31 Sur 0 -- -- 64
2021-02-03 13:00:00 13.9 15 Sur 26 Sudeste 0 -- -- 62
2021-02-03 12:00:00 13.5 17 Sur 32 Sur 0 -- -- 63
2021-02-03 11:00:00 11.7 15 Sur 27 Sur 0 -- -- 65
2021-02-03 10:00:00 10.5 21 Sur 33 Sur 0 -- -- 67
2021-02-03 09:00:00 9.7 17 Sur 26 Sur 0 -- -- 70
2021-02-03 08:00:00 9.2 17 Sudeste 33 Sudeste 0 -- -- 73
2021-02-03 07:00:00 9.6 19 Sudeste 32 Sur 0 -- -- 73
2021-02-03 06:00:00 9.2 22 Sudeste 36 Sur 0 -- -- 74
2021-02-03 05:00:00 9.4 17 Sudeste 30 Sudeste 0 -- -- 75
2021-02-03 04:00:00 9.3 13 Sudeste 30 Sudeste 0 -- -- 77
2021-02-03 03:00:00 9.4 8 Sudeste 19 Sur 0 -- -- 78
2021-02-03 02:00:00 9.4 11 Sur 23 Sur 0 -- -- 80
2021-02-03 01:00:00 9.2 14 Sudeste 22 Sudeste 0 -- -- 81
2021-02-03 00:00:00 7.8 2 Sudeste 13 Sur 0 -- -- 88
2021-02-02 23:00:00 7.8 6 Sur 13 Sur 0 -- -- 86
2021-02-02 22:00:00 8.6 6 Sur 9 Sur 0 -- -- 85
2021-02-02 21:00:00 10.4 4 Este 11 Sur 0 -- -- 78
2021-02-02 20:00:00 10 5 Sur 8 Sur 0 -- -- 78
2021-02-02 19:00:00 11.2 6 Sur 9 Sur 0 -- -- 76
2021-02-02 18:00:00 13.4 2 Sudeste 6 Sur 0 -- -- 68
2021-02-02 17:00:00 15 5 Sur 12 Sur 0 -- -- 62
2021-02-02 16:00:00 15.6 10 Sur 19 Sur 0 -- -- 60
2021-02-02 15:00:00 16.3 9 Sudeste 19 Sudeste 0 -- -- 57
2021-02-02 14:00:00 16.3 9 Sur 21 Sudeste 0 -- -- 57
2021-02-02 13:00:00 16.6 7 Sudeste 11 Sur 0 -- -- 58
2021-02-02 12:00:00 15.1 6 Sur 19 Sudoeste 0 -- -- 62
2021-02-02 11:00:00 13.7 5 Sudoeste 10 Oeste 0 -- -- 68
2021-02-02 10:00:00 11.4 3 Sudoeste 7 Oeste 0 -- -- 77
2021-02-02 09:00:00 8.9 2 Sur 9 Oeste 0 -- -- 88
2021-02-02 08:00:00 7 3 Sudoeste 8 Sur 0 -- -- 95
2021-02-02 07:00:00 6 4 Sur 7 Sur 0 -- -- 97
2021-02-02 06:00:00 6.7 5 Sur 11 Sur 0 -- -- 95
2021-02-02 05:00:00 7.3 6 Sur 11 Sur 0 -- -- 96
2021-02-02 04:00:00 6.6 6 Sur 9 Sur 0 -- -- 96
2021-02-02 03:00:00 7.3 7 Sur 13 Sudoeste 0 -- -- 94
2021-02-02 02:00:00 8 3 Sur 6 Sur 0 -- -- 93
2021-02-02 01:00:00 8.9 0 Calma 5 Sur 0 -- -- 91
2021-02-02 00:00:00 8.9 3 Sur 5 Sur 0 -- -- 92
2021-02-01 23:00:00 9.3 2 Oeste 7 Oeste 0 -- -- 89
2021-02-01 22:00:00 9.6 3 Oeste 7 Oeste 0 -- -- 89
2021-02-01 21:00:00 10 0 Calma 7 Noroeste 0.2 -- -- 88
2021-02-01 20:00:00 9.7 3 Oeste 11 Noroeste 0 -- -- 90
2021-02-01 19:00:00 8.5 2 Sudoeste 7 Sur 0 -- -- 93
2021-02-01 18:00:00 9.6 3 Nordeste 6 Nordeste 0 -- -- 90
2021-02-01 17:00:00 9.5 0 Calma 11 Noroeste 0.2 -- -- 89
2021-02-01 16:00:00 10.1 6 Noroeste 16 Noroeste 0 -- -- 80
2021-02-01 15:00:00 10.8 11 Noroeste 17 Noroeste 0 -- -- 70
2021-02-01 14:00:00 11.1 7 Noroeste 20 Noroeste 0 -- -- 64
2021-02-01 13:00:00 11.4 10 Noroeste 17 Noroeste 0 -- -- 66
2021-02-01 12:00:00 11.7 11 Noroeste 18 Noroeste 0 -- -- 62
2021-02-01 11:00:00 11.1 11 Oeste 20 Noroeste 0 -- -- 64
2021-02-01 10:00:00 9.6 9 Oeste 22 Oeste 0 -- -- 69
2021-02-01 09:00:00 9.3 5 Oeste 18 Oeste 0 -- -- 69
2021-02-01 08:00:00 8.9 5 Oeste 25 Oeste 0 -- -- 73
2021-02-01 07:00:00 8.8 13 Noroeste 21 Noroeste 0.2 -- -- 80
2021-02-01 06:00:00 8.2 5 Oeste 13 Sur 0.4 -- -- 85
2021-02-01 05:00:00 7.9 0 Calma 5 Sur 0 -- -- 89
2021-02-01 04:00:00 8 2 Noroeste 5 Oeste 0 -- -- 89
2021-02-01 03:00:00 7.7 0 Calma 18 Norte 0.8 -- -- 93
2021-02-01 02:00:00 10.1 6 Oeste 12 Oeste 0 -- -- 76
2021-02-01 01:00:00 9.1 0 Calma 12 Noroeste 0 -- -- 81
2021-02-01 00:00:00 10.7 10 Noroeste 35 Oeste 0.4 -- -- 71